Route Details

Aircraft Information
Group: North America Fleet
Types: B738, B752, B762, B763
Route Data
Distance: 479nm
Duration: 1h 50m
Origin METAR: KPDX 010653Z 12003KT 10SM SCT250 01/M04 A3020 RMK AO2 SLP227 T00111039
Dest. METAR: KSFO 010556Z 29005KT 10SM FEW200 09/05 A3019 RMK AO2 SLP223 T00890050 10156 20089 53008
Freight Data
(for Feb 1, 2023)
Load Factor:
63%
Manifested Cargo: 35,471lbs
Financial History
Total Freight: 36,084lbs
Average Load: 0lbs/flt
Fuel Used: 19,866lbs
Avg. Fuel Used: 0lbs/flt
Fuel Expense: $10,926
Avg. Fuel Expense: $0
Avg. Fuel Cost: $0/lbs
Total Gross Income: $88,767
Pilot Pay: $269
Total Expenses: $18,205
Total Revenue: $59,061
Average Revenue: $0

Capitol Logistics 492




KPDX
Portland International Airport
Portland, Oregon
KSFO
San Francisco International Airport
San Francisco, California

Activity Log

Date Flight Route Aircraft Duration
12/08/2022 CPX492 MINNE5 EASON DCT EUG DCT RBG DCT ENI PYE3 B763 1h 31m